Hickory Hills, Illinois
Current Conditions -  °F | °C
As of 7:53 PM on Friday 28 Nov 2014 (Local Time) from KMDW Reporting Station
Overcast Overcast  
Wind Chill: 27°   Ceiling: 12000
Heat Index: 35°   Visibility: 10mi
Dew Point: 27°   Wind: 12mph
Humidity: 72%   Direction: 170°S
Pressure: 29.94"   Gusts: NA
Location:  41.72°N, 87.83°W
Report Text: KMDW 290153Z 17010KT 10SM BKN120 OVC180 02/M03 A2994 RMK AO2 SLP152 T00171028 $
Loading
Personal Weather Stations






























Interactive Weather Map New forecast layout! Learn more

10-Day Weather Forecast

Advertisements
Track Severe Weather on mobile